createdAt,value
2017-11-27T00:00:58.870Z,100714.42
2017-11-27T00:02:08.274Z,100714.84
2017-11-27T00:03:13.771Z,100715.70
2017-11-27T00:04:19.500Z,100715.25
2017-11-27T00:05:25.206Z,100719.69
2017-11-27T00:06:30.908Z,100714.53
2017-11-27T00:07:36.618Z,100714.52
2017-11-27T00:08:42.349Z,100714.08
2017-11-27T00:09:48.836Z,100709.34
2017-11-27T00:10:54.547Z,100715.05
2017-11-27T00:12:01.016Z,100718.55
2017-11-27T00:13:06.727Z,100714.29
2017-11-27T00:14:12.435Z,100716.56
2017-11-27T00:15:18.158Z,100715.20
2017-11-27T00:16:23.846Z,100715.14
2017-11-27T00:17:29.546Z,100718.28
2017-11-27T00:18:34.928Z,100717.79
2017-11-27T00:19:40.636Z,100713.89
2017-11-27T00:20:46.361Z,100715.26
2017-11-27T00:21:51.891Z,100721.77
2017-11-27T00:22:57.776Z,100730.90
2017-11-27T00:24:03.150Z,100723.60
2017-11-27T00:25:08.514Z,100717.53
2017-11-27T00:26:14.067Z,100729.25
2017-11-27T00:27:19.758Z,100728.88
2017-11-27T00:28:25.466Z,100726.78
2017-11-27T00:29:31.159Z,100729.02
2017-11-27T00:30:36.858Z,100728.57
2017-11-27T00:31:42.607Z,100735.42
2017-11-27T00:32:48.313Z,100732.04
2017-11-27T00:33:54.021Z,100739.48
2017-11-27T00:34:59.736Z,100742.08
2017-11-27T00:36:06.234Z,100745.98
2017-11-27T00:37:12.169Z,100739.95
2017-11-27T00:38:17.870Z,100743.41
2017-11-27T00:39:24.355Z,100749.48
2017-11-27T00:40:30.261Z,100746.89
2017-11-27T00:41:36.727Z,100747.75
2017-11-27T00:42:43.229Z,100752.06
2017-11-27T00:43:49.144Z,100752.50
2017-11-27T00:44:55.610Z,100751.64
2017-11-27T00:46:01.327Z,100750.00
2017-11-27T00:47:07.794Z,100749.15
2017-11-27T00:48:14.105Z,100750.44
2017-11-27T00:49:19.814Z,100743.14
2017-11-27T00:50:25.503Z,100742.70
2017-11-27T00:51:31.209Z,100750.00
2017-11-27T00:52:36.916Z,100743.14
2017-11-27T00:53:43.232Z,100748.77
2017-11-27T00:54:48.735Z,100746.09
2017-11-27T00:55:54.255Z,100748.67
2017-11-27T00:56:59.384Z,100749.03
2017-11-27T00:58:04.893Z,100746.87
2017-11-27T00:59:11.195Z,100750.75
2017-11-27T01:00:16.732Z,100747.72
2017-11-27T01:01:22.251Z,100743.84
2017-11-27T01:02:27.774Z,100743.05
2017-11-27T01:03:33.484Z,100741.80
2017-11-27T01:04:39.196Z,100741.80
2017-11-27T01:05:44.928Z,100746.16
2017-11-27T01:06:50.625Z,100745.77
2017-11-27T01:07:57.104Z,100746.20
2017-11-27T01:09:02.798Z,100740.63
2017-11-27T01:10:08.516Z,100738.58
2017-11-27T01:11:14.030Z,100738.59
2017-11-27T01:12:19.722Z,100738.59
2017-11-27T01:13:25.425Z,100740.75
2017-11-27T01:14:31.137Z,100739.45
2017-11-27T01:15:36.858Z,100731.21
2017-11-27T01:16:43.333Z,100737.27
2017-11-27T01:17:49.044Z,100736.44
2017-11-27T01:18:54.743Z,100742.03
2017-11-27T01:20:00.434Z,100749.77
2017-11-27T01:21:06.934Z,100741.11
2017-11-27T01:22:12.629Z,100741.97
2017-11-27T01:23:19.102Z,100744.15
2017-11-27T01:24:25.558Z,100748.52
2017-11-27T01:25:32.018Z,100752.52
2017-11-27T01:26:37.742Z,100751.22
2017-11-27T01:27:44.212Z,100743.45
2017-11-27T01:28:50.062Z,100746.92
2017-11-27T01:29:55.765Z,100752.53
2017-11-27T01:31:01.463Z,100750.39
2017-11-27T01:32:07.190Z,100751.67
2017-11-27T01:33:12.893Z,100746.94
2017-11-27T01:34:18.597Z,100744.39
2017-11-27T01:35:24.306Z,100750.92
2017-11-27T01:36:30.007Z,100751.80
2017-11-27T01:37:37.236Z,100756.21
2017-11-27T01:38:42.943Z,100748.47
2017-11-27T01:39:49.397Z,100749.36
2017-11-27T01:40:55.115Z,100745.47
2017-11-27T01:42:00.621Z,100749.77
2017-11-27T01:43:06.344Z,100756.29
2017-11-27T01:44:11.701Z,100753.27
2017-11-27T01:45:17.410Z,100753.75
2017-11-27T01:46:23.112Z,100757.23
2017-11-27T01:47:28.810Z,100754.22
2017-11-27T01:48:34.518Z,100743.83
2017-11-27T01:49:40.980Z,100750.24
2017-11-27T01:50:47.442Z,100746.27
2017-11-27T01:51:53.147Z,100746.16
2017-11-27T01:52:58.835Z,100753.86
2017-11-27T01:54:04.586Z,100751.70
2017-11-27T01:55:10.291Z,100753.42
2017-11-27T01:56:16.452Z,100754.27
2017-11-27T01:57:22.934Z,100752.11
2017-11-27T01:58:28.329Z,100755.59
2017-11-27T01:59:34.818Z,100755.21
2017-11-27T02:00:40.517Z,100753.48
2017-11-27T02:01:46.238Z,100757.41
2017-11-27T02:02:51.941Z,100754.82
2017-11-27T02:03:57.639Z,100758.77
2017-11-27T02:05:04.128Z,100760.95
2017-11-27T02:06:10.582Z,100761.83
2017-11-27T02:07:16.272Z,100759.67
2017-11-27T02:08:22.177Z,100762.66
2017-11-27T02:09:27.681Z,100763.03
2017-11-27T02:10:33.985Z,100764.31
2017-11-27T02:11:39.702Z,100759.11
2017-11-27T02:12:46.158Z,100758.67
2017-11-27T02:13:51.877Z,100762.95
2017-11-27T02:14:58.019Z,100762.13
2017-11-27T02:16:03.596Z,100762.55
2017-11-27T02:17:09.294Z,100762.13
2017-11-27T02:18:14.994Z,100763.34
2017-11-27T02:19:20.374Z,100765.45
2017-11-27T02:20:26.848Z,100762.83
2017-11-27T02:21:32.665Z,100756.34
2017-11-27T02:22:38.810Z,100761.52
2017-11-27T02:23:44.192Z,100761.88
2017-11-27T02:24:52.698Z,100760.98
2017-11-27T02:25:58.192Z,100763.16
2017-11-27T02:27:04.494Z,100766.19
2017-11-27T02:28:10.186Z,100761.36
2017-11-27T02:29:15.941Z,100766.55
2017-11-27T02:30:22.420Z,100756.64
2017-11-27T02:31:28.115Z,100759.25
2017-11-27T02:32:33.852Z,100757.09
2017-11-27T02:33:39.582Z,100761.45
2017-11-27T02:34:45.274Z,100754.59
2017-11-27T02:35:51.847Z,100759.38
2017-11-27T02:36:57.556Z,100758.59
2017-11-27T02:38:03.284Z,100761.19
2017-11-27T02:39:08.986Z,100762.07
2017-11-27T02:40:14.674Z,100761.65
2017-11-27T02:41:20.370Z,100758.16
2017-11-27T02:42:26.069Z,100761.61
2017-11-27T02:43:32.567Z,100764.20
2017-11-27T02:44:38.291Z,100761.98
2017-11-27T02:45:43.986Z,100770.95
2017-11-27T02:46:49.755Z,100757.96
2017-11-27T02:47:56.211Z,100764.00
2017-11-27T02:49:02.694Z,100763.51
2017-11-27T02:50:08.394Z,100766.17
2017-11-27T02:51:14.092Z,100758.81
2017-11-27T02:52:19.779Z,100757.43
2017-11-27T02:53:26.243Z,100757.86
2017-11-27T02:54:32.731Z,100762.23
2017-11-27T02:55:38.426Z,100765.25
2017-11-27T02:56:44.893Z,100752.33
2017-11-27T02:57:49.953Z,100764.80
2017-11-27T02:58:55.650Z,100753.99
2017-11-27T03:00:02.350Z,100752.28
2017-11-27T03:01:08.125Z,100753.20
2017-11-27T03:02:13.813Z,100753.98
2017-11-27T03:03:20.274Z,100752.75
2017-11-27T03:04:26.945Z,100749.73
2017-11-27T03:05:32.688Z,100747.14
2017-11-27T03:06:38.387Z,100748.45
2017-11-27T03:07:43.745Z,100748.48
2017-11-27T03:08:50.219Z,100749.41
2017-11-27T03:09:55.922Z,100747.25
2017-11-27T03:11:03.148Z,100748.99
2017-11-27T03:12:08.634Z,100752.09
2017-11-27T03:13:14.531Z,100752.17
2017-11-27T03:14:20.221Z,100751.78
2017-11-27T03:15:25.931Z,100752.28
2017-11-27T03:16:31.656Z,100760.94
2017-11-27T03:17:37.353Z,100753.62
2017-11-27T03:18:43.830Z,100761.91
2017-11-27T03:19:49.534Z,100755.08
2017-11-27T03:20:55.034Z,100762.06
2017-11-27T03:22:00.774Z,100755.18
2017-11-27T03:23:06.482Z,100757.34
2017-11-27T03:24:12.946Z,100756.13
2017-11-27T03:25:18.646Z,100757.91
2017-11-27T03:26:24.350Z,100761.38
2017-11-27T03:27:30.073Z,100760.52
2017-11-27T03:28:35.770Z,100761.45
2017-11-27T03:29:41.273Z,100761.05
2017-11-27T03:30:46.978Z,100757.56
2017-11-27T03:31:53.258Z,100763.20
2017-11-27T03:32:58.794Z,100756.70
2017-11-27T03:34:04.510Z,100756.72
2017-11-27T03:35:10.785Z,100759.77
2017-11-27T03:36:16.447Z,100761.11
2017-11-27T03:37:22.167Z,100756.37
2017-11-27T03:38:27.902Z,100758.97
2017-11-27T03:39:33.489Z,100759.83
2017-11-27T03:40:39.196Z,100757.23
2017-11-27T03:41:44.718Z,100761.98
2017-11-27T03:42:50.414Z,100765.38
2017-11-27T03:43:56.935Z,100765.73
2017-11-27T03:45:02.644Z,100758.78
2017-11-27T03:46:08.910Z,100758.34
2017-11-27T03:47:14.597Z,100759.13
2017-11-27T03:48:20.299Z,100754.80
2017-11-27T03:49:26.042Z,100758.61
2017-11-27T03:50:31.733Z,100755.18
2017-11-27T03:51:37.430Z,100755.17
2017-11-27T03:52:43.133Z,100753.44
2017-11-27T03:53:49.586Z,100753.42
2017-11-27T03:54:56.074Z,100747.38
2017-11-27T03:56:01.774Z,100756.02
2017-11-27T03:57:07.278Z,100751.63
2017-11-27T03:58:12.970Z,100748.21
2017-11-27T03:59:18.672Z,100743.84
2017-11-27T04:00:24.394Z,100744.32
2017-11-27T04:01:30.098Z,100743.84
2017-11-27T04:02:35.798Z,100745.20
2017-11-27T04:03:41.498Z,100734.84
2017-11-27T04:04:47.203Z,100747.44
2017-11-27T04:05:53.927Z,100743.99
2017-11-27T04:06:59.628Z,100735.00
2017-11-27T04:08:05.320Z,100735.38
2017-11-27T04:09:11.025Z,100730.69
2017-11-27T04:10:16.709Z,100733.73
2017-11-27T04:11:23.208Z,100730.77
2017-11-27T04:12:28.901Z,100726.11
2017-11-27T04:13:34.602Z,100733.46
2017-11-27T04:14:40.303Z,100731.32
2017-11-27T04:15:46.464Z,100736.55
2017-11-27T04:16:51.346Z,100739.17
2017-11-27T04:17:56.380Z,100738.33
2017-11-27T04:19:02.874Z,100737.07
2017-11-27T04:20:08.390Z,100732.78
2017-11-27T04:21:14.854Z,100730.20
2017-11-27T04:22:21.349Z,100733.70
2017-11-27T04:23:27.072Z,100729.82
2017-11-27T04:24:32.590Z,100729.84
2017-11-27T04:25:38.298Z,100727.73
2017-11-27T04:26:44.006Z,100727.75
2017-11-27T04:27:49.729Z,100729.92
2017-11-27T04:28:55.432Z,100728.69
2017-11-27T04:30:01.147Z,100721.78
2017-11-27T04:31:06.844Z,100729.58
2017-11-27T04:32:12.547Z,100724.87
2017-11-27T04:33:18.287Z,100725.31
2017-11-27T04:34:23.985Z,100726.62
2017-11-27T04:35:29.018Z,100725.31
2017-11-27T04:36:34.395Z,100727.06
2017-11-27T04:37:40.096Z,100719.34
2017-11-27T04:38:45.489Z,100726.69
2017-11-27T04:39:51.202Z,100720.22
2017-11-27T04:40:56.897Z,100721.52
2017-11-27T04:42:02.594Z,100722.40
2017-11-27T04:43:09.050Z,100719.81
2017-11-27T04:44:15.555Z,100725.47
2017-11-27T04:45:20.934Z,100725.41
2017-11-27T04:46:27.502Z,100718.94
2017-11-27T04:47:33.962Z,100717.70
2017-11-27T04:48:40.434Z,100721.60
2017-11-27T04:49:46.169Z,100710.42
2017-11-27T04:50:52.441Z,100714.70
2017-11-27T04:51:58.145Z,100712.16
2017-11-27T04:53:03.830Z,100716.94
2017-11-27T04:54:09.545Z,100716.51
2017-11-27T04:55:15.690Z,100717.38
2017-11-27T04:56:21.827Z,100716.13
2017-11-27T04:57:28.298Z,100711.80
2017-11-27T04:58:34.765Z,100717.00
2017-11-27T04:59:41.231Z,100717.00
2017-11-27T05:00:46.970Z,100716.16
2017-11-27T05:01:52.676Z,100713.61
2017-11-27T05:02:59.137Z,100713.19
2017-11-27T05:04:04.507Z,100711.91
2017-11-27T05:05:09.588Z,100709.36
2017-11-27T05:06:15.322Z,100710.22
2017-11-27T05:07:21.150Z,100708.50
2017-11-27T05:08:27.054Z,100712.86
2017-11-27T05:09:32.755Z,100711.13
2017-11-27T05:10:38.461Z,100709.82
2017-11-27T05:11:44.199Z,100703.77
2017-11-27T05:12:49.702Z,100700.31
2017-11-27T05:13:56.170Z,100703.77
2017-11-27T05:15:01.869Z,100702.53
2017-11-27T05:16:07.586Z,100696.88
2017-11-27T05:17:13.322Z,100698.59
2017-11-27T05:18:18.827Z,100701.25
2017-11-27T05:19:24.529Z,100696.92
2017-11-27T05:20:30.227Z,100690.89
2017-11-27T05:21:35.733Z,100696.06
2017-11-27T05:22:41.452Z,100697.79
2017-11-27T05:23:46.986Z,100690.89
2017-11-27T05:24:52.519Z,100694.34
2017-11-27T05:25:57.909Z,100696.50
2017-11-27T05:27:03.647Z,100685.30
2017-11-27T05:28:09.384Z,100688.74
2017-11-27T05:29:15.977Z,100686.64
2017-11-27T05:30:21.732Z,100681.03
2017-11-27T05:31:27.436Z,100678.00
2017-11-27T05:32:33.160Z,100674.11
2017-11-27T05:33:38.919Z,100667.22
2017-11-27T05:34:44.633Z,100668.09
2017-11-27T05:35:50.345Z,100668.13
2017-11-27T05:36:56.061Z,100669.02
2017-11-27T05:38:01.761Z,100671.59
2017-11-27T05:39:07.482Z,100668.16
2017-11-27T05:40:13.962Z,100665.20
2017-11-27T05:41:19.671Z,100667.35
2017-11-27T05:42:26.158Z,100666.06
2017-11-27T05:43:31.862Z,100662.61
2017-11-27T05:44:37.584Z,100658.30
2017-11-27T05:45:43.104Z,100658.30
2017-11-27T05:46:48.807Z,100660.52
2017-11-27T05:47:54.516Z,100659.23
2017-11-27T05:49:00.223Z,100654.92
2017-11-27T05:50:05.963Z,100653.18
2017-11-27T05:51:11.662Z,100651.84
2017-11-27T05:52:18.128Z,100648.38
2017-11-27T05:53:23.820Z,100660.45
2017-11-27T05:54:29.531Z,100660.91
2017-11-27T05:55:35.295Z,100652.70
2017-11-27T05:56:40.999Z,100648.44
2017-11-27T05:57:46.705Z,100647.14
2017-11-27T05:58:52.409Z,100650.59
2017-11-27T05:59:58.129Z,100644.55
2017-11-27T06:01:03.853Z,100647.95
2017-11-27T06:02:09.554Z,100652.27
2017-11-27T06:03:15.247Z,100647.52
2017-11-27T06:04:20.939Z,100647.09
2017-11-27T06:05:26.635Z,100644.08
2017-11-27T06:06:32.150Z,100644.50
2017-11-27T06:07:37.850Z,100644.98
2017-11-27T06:08:43.558Z,100635.05
2017-11-27T06:09:49.273Z,100641.09
2017-11-27T06:10:55.145Z,100643.25
2017-11-27T06:12:00.874Z,100637.59
2017-11-27T06:13:06.588Z,100642.34
2017-11-27T06:14:13.041Z,100632.84
2017-11-27T06:15:19.497Z,100631.13
2017-11-27T06:16:25.969Z,100631.95
2017-11-27T06:17:32.276Z,100628.51
2017-11-27T06:18:37.969Z,100630.23
2017-11-27T06:19:43.670Z,100620.30
2017-11-27T06:20:49.362Z,100628.92
2017-11-27T06:21:55.050Z,100625.48
2017-11-27T06:23:00.592Z,100624.61
2017-11-27T06:24:06.094Z,100627.14
2017-11-27T06:25:11.786Z,100629.73
2017-11-27T06:26:18.358Z,100627.55
2017-11-27T06:27:24.073Z,100628.38
2017-11-27T06:28:29.800Z,100624.91
2017-11-27T06:29:35.509Z,100629.66
2017-11-27T06:30:41.209Z,100627.13
2017-11-27T06:31:47.674Z,100631.00
2017-11-27T06:32:53.200Z,100625.34
2017-11-27T06:33:59.690Z,100628.36
2017-11-27T06:35:05.076Z,100627.94
2017-11-27T06:36:10.776Z,100633.11
2017-11-27T06:37:16.292Z,100638.72
2017-11-27T06:38:21.793Z,100638.36
2017-11-27T06:39:28.304Z,100640.94
2017-11-27T06:40:34.206Z,100643.47
2017-11-27T06:41:40.472Z,100645.19
2017-11-27T06:42:46.172Z,100649.08
2017-11-27T06:43:51.709Z,100650.38
2017-11-27T06:44:57.231Z,100649.06
2017-11-27T06:46:02.745Z,100651.24
2017-11-27T06:47:08.461Z,100652.10
2017-11-27T06:48:14.181Z,100656.87
2017-11-27T06:49:20.658Z,100652.16
2017-11-27T06:50:26.394Z,100655.62
2017-11-27T06:51:32.694Z,100656.05
2017-11-27T06:52:38.450Z,100662.09
2017-11-27T06:53:43.943Z,100659.94
2017-11-27T06:54:49.642Z,100658.22
2017-11-27T06:55:56.234Z,100660.81
2017-11-27T06:57:01.930Z,100657.73
2017-11-27T06:58:07.638Z,100658.59
2017-11-27T06:59:13.338Z,100662.47
2017-11-27T07:00:19.801Z,100662.45
2017-11-27T07:01:26.297Z,100655.48
2017-11-27T07:02:32.007Z,100656.70
2017-11-27T07:03:38.313Z,100664.90
2017-11-27T07:04:44.014Z,100662.28
2017-11-27T07:05:49.745Z,100654.45
2017-11-27T07:06:55.078Z,100658.33
2017-11-27T07:08:00.807Z,100655.29
2017-11-27T07:09:07.266Z,100660.41
2017-11-27T07:10:13.722Z,100656.10
2017-11-27T07:11:20.181Z,100655.73
2017-11-27T07:12:26.478Z,100656.97
2017-11-27T07:13:32.183Z,100656.47
2017-11-27T07:14:37.879Z,100654.29
2017-11-27T07:15:43.387Z,100649.95
2017-11-27T07:16:49.086Z,100656.38
2017-11-27T07:17:55.573Z,100649.42
2017-11-27T07:19:01.286Z,100652.81
2017-11-27T07:20:07.751Z,100649.73
2017-11-27T07:21:14.200Z,100650.15
2017-11-27T07:22:20.670Z,100654.46
2017-11-27T07:23:26.405Z,100647.95
2017-11-27T07:24:32.889Z,100645.28
2017-11-27T07:25:38.590Z,100646.95
2017-11-27T07:26:44.282Z,100647.73
2017-11-27T07:27:49.989Z,100642.44
2017-11-27T07:28:55.717Z,100645.80
2017-11-27T07:30:02.186Z,100647.87
2017-11-27T07:31:08.651Z,100647.34
2017-11-27T07:32:14.354Z,100641.60
2017-11-27T07:33:20.117Z,100637.13
2017-11-27T07:34:26.408Z,100633.10
2017-11-27T07:35:32.120Z,100631.69
2017-11-27T07:36:38.636Z,100633.27
2017-11-27T07:39:42.505Z,100631.73
2017-11-27T07:40:48.215Z,100626.86
2017-11-27T07:41:54.674Z,100623.29
2017-11-27T07:43:01.144Z,100627.93
2017-11-27T07:44:07.650Z,100623.06
2017-11-27T07:45:13.759Z,100622.02
2017-11-27T07:46:19.460Z,100624.89
2017-11-27T07:47:25.149Z,100624.33
2017-11-27T07:48:30.858Z,100622.06
2017-11-27T07:49:36.553Z,100621.45
2017-11-27T07:50:42.282Z,100624.44
2017-11-27T07:51:47.980Z,100623.89
2017-11-27T07:52:54.462Z,100627.66
2017-11-27T07:54:00.164Z,100630.61
2017-11-27T07:55:05.869Z,100624.41
2017-11-27T07:56:11.588Z,100623.00
2017-11-27T07:57:17.320Z,100618.62
2017-11-27T07:58:23.020Z,100614.63
2017-11-27T07:59:28.714Z,100619.81
2017-11-27T08:00:34.086Z,100623.19
2017-11-27T08:01:39.811Z,100618.71
2017-11-27T08:02:45.512Z,100623.80
2017-11-27T08:03:51.226Z,100614.02
2017-11-27T08:04:56.927Z,100620.84
2017-11-27T08:06:02.691Z,100614.64
2017-11-27T08:07:08.423Z,100614.42
2017-11-27T08:08:14.132Z,100606.63
2017-11-27T08:09:19.830Z,100600.91
2017-11-27T08:10:25.350Z,100593.23
2017-11-27T08:11:31.042Z,100601.98
2017-11-27T08:12:36.435Z,100599.77
2017-11-27T08:13:42.413Z,100604.93
2017-11-27T08:14:47.922Z,100602.67
2017-11-27T08:15:53.614Z,100599.61
2017-11-27T08:16:59.305Z,100597.87
2017-11-27T08:18:05.618Z,100594.19
2017-11-27T08:19:11.323Z,100591.09
2017-11-27T08:20:16.837Z,100593.70
2017-11-27T08:21:23.307Z,100592.45
2017-11-27T08:22:29.583Z,100589.40
2017-11-27T08:23:35.316Z,100595.86
2017-11-27T08:24:41.005Z,100590.45
2017-11-27T08:25:46.705Z,100587.79
2017-11-27T08:26:52.409Z,100589.98
2017-11-27T08:27:58.879Z,100589.56
2017-11-27T08:29:05.365Z,100583.89
2017-11-27T08:30:11.054Z,100583.77
2017-11-27T08:31:17.535Z,100576.36
2017-11-27T08:32:24.069Z,100566.43
2017-11-27T08:33:31.266Z,100575.64
2017-11-27T08:34:37.767Z,100572.49
2017-11-27T08:35:43.462Z,100573.67
2017-11-27T08:36:49.918Z,100571.95
2017-11-27T08:37:56.394Z,100576.58
2017-11-27T08:39:02.670Z,100573.67
2017-11-27T08:40:08.408Z,100576.28
2017-11-27T08:41:14.121Z,100571.50
2017-11-27T08:42:20.590Z,100561.64
2017-11-27T08:43:26.289Z,100579.00
2017-11-27T08:44:31.655Z,100571.17
2017-11-27T08:45:38.141Z,100567.56
2017-11-27T08:46:43.846Z,100561.60
2017-11-27T08:47:50.341Z,100562.06
2017-11-27T08:48:56.060Z,100565.09
2017-11-27T08:50:01.450Z,100559.83
2017-11-27T08:51:07.197Z,100556.88
2017-11-27T08:52:12.890Z,100557.95
2017-11-27T08:53:18.302Z,100556.83
2017-11-27T08:54:24.765Z,100558.53
2017-11-27T08:55:30.462Z,100555.48
2017-11-27T08:56:35.857Z,100558.48
2017-11-27T08:57:41.558Z,100554.52
2017-11-27T08:58:48.030Z,100557.66
2017-11-27T08:59:54.502Z,100556.83
2017-11-27T09:00:59.863Z,100559.25
2017-11-27T09:02:05.775Z,100558.00
2017-11-27T09:03:11.470Z,100555.73
2017-11-27T09:04:17.177Z,100555.33
2017-11-27T09:05:22.882Z,100549.64
2017-11-27T09:06:29.354Z,100554.81
2017-11-27T09:07:35.082Z,100555.58
2017-11-27T09:08:41.551Z,100551.11
2017-11-27T09:09:47.251Z,100547.56
2017-11-27T09:10:52.948Z,100548.31
2017-11-27T09:11:58.646Z,100533.54
2017-11-27T09:13:04.945Z,100540.92
2017-11-27T09:14:10.332Z,100541.41
2017-11-27T09:15:16.017Z,100535.70
2017-11-27T09:16:21.539Z,100534.77
2017-11-27T09:17:27.240Z,100535.84
2017-11-27T09:18:32.971Z,100530.23
2017-11-27T09:19:38.334Z,100528.95
2017-11-27T09:20:44.619Z,100534.25
2017-11-27T09:21:50.318Z,100533.73
2017-11-27T09:22:56.784Z,100523.41
2017-11-27T09:24:03.291Z,100537.34
2017-11-27T09:25:08.671Z,100525.14
2017-11-27T09:26:15.145Z,100527.72
2017-11-27T09:27:20.855Z,100528.55
2017-11-27T09:28:26.565Z,100528.55
2017-11-27T09:29:32.298Z,100530.56
2017-11-27T09:30:38.002Z,100524.56
2017-11-27T09:31:44.475Z,100529.84
2017-11-27T09:32:50.177Z,100524.63
2017-11-27T09:33:55.877Z,100527.58
2017-11-27T09:35:01.602Z,100518.66
2017-11-27T09:36:07.311Z,100521.78
2017-11-27T09:37:13.599Z,100513.59
2017-11-27T09:38:19.301Z,100521.22
2017-11-27T09:39:25.771Z,100517.53
2017-11-27T09:40:32.260Z,100514.81
2017-11-27T09:41:37.986Z,100522.58
2017-11-27T09:42:43.687Z,100517.38
2017-11-27T09:43:49.391Z,100511.20
2017-11-27T09:44:55.157Z,100516.41
2017-11-27T09:46:00.877Z,100508.56
2017-11-27T09:47:06.401Z,100509.39
2017-11-27T09:48:12.103Z,100510.32
2017-11-27T09:49:18.571Z,100515.72
2017-11-27T09:50:24.282Z,100510.70
2017-11-27T09:51:29.844Z,100510.48
2017-11-27T09:52:36.307Z,100512.52
2017-11-27T09:53:42.013Z,100504.68
2017-11-27T09:54:47.382Z,100504.68
2017-11-27T09:55:53.123Z,100496.36
2017-11-27T09:56:59.639Z,100503.53
2017-11-27T09:58:05.336Z,100501.10
2017-11-27T09:59:10.830Z,100484.20
2017-11-27T10:00:17.172Z,100496.63
2017-11-27T10:01:22.555Z,100491.39
2017-11-27T10:02:29.065Z,100488.78
2017-11-27T10:03:34.438Z,100481.59
2017-11-27T10:04:40.138Z,100475.84
2017-11-27T10:05:45.846Z,100478.05
2017-11-27T10:06:51.547Z,100474.19
2017-11-27T10:07:58.031Z,100473.73
2017-11-27T10:09:03.506Z,100472.59
2017-11-27T10:10:09.214Z,100464.77
2017-11-27T10:11:15.124Z,100457.67
2017-11-27T10:12:21.604Z,100466.58
2017-11-27T10:13:27.322Z,100459.03
2017-11-27T10:14:33.463Z,100451.97
2017-11-27T10:15:40.148Z,100459.30
2017-11-27T10:16:46.615Z,100456.59
2017-11-27T10:17:52.313Z,100445.86
2017-11-27T10:18:57.851Z,100447.16
2017-11-27T10:20:04.338Z,100443.75
2017-11-27T10:21:10.802Z,100449.73
2017-11-27T10:22:16.510Z,100451.52
2017-11-27T10:23:22.216Z,100436.94
2017-11-27T10:24:27.943Z,100439.34
2017-11-27T10:25:33.650Z,100436.79
2017-11-27T10:26:40.147Z,100434.58
2017-11-27T10:27:46.047Z,100428.00
2017-11-27T10:28:52.522Z,100426.12
2017-11-27T10:29:58.317Z,100426.66
2017-11-27T10:31:03.687Z,100426.34
2017-11-27T10:32:10.235Z,100421.23
2017-11-27T10:33:16.711Z,100421.95
2017-11-27T10:34:23.178Z,100423.86
2017-11-27T10:35:28.901Z,100422.66
2017-11-27T10:36:35.477Z,100412.16
2017-11-27T10:37:40.860Z,100400.87
2017-11-27T10:38:46.594Z,100399.78
2017-11-27T10:39:52.302Z,100396.67
2017-11-27T10:40:58.028Z,100400.92
2017-11-27T10:42:03.403Z,100395.18
2017-11-27T10:43:09.100Z,100399.52
2017-11-27T10:44:15.176Z,100390.36
2017-11-27T10:45:20.899Z,100380.23
2017-11-27T10:46:26.279Z,100387.75
2017-11-27T10:47:31.988Z,100388.66
2017-11-27T10:48:37.519Z,100384.11
2017-11-27T10:49:43.218Z,100384.83
2017-11-27T10:50:48.924Z,100386.64
2017-11-27T10:51:54.651Z,100384.53
2017-11-27T10:53:00.366Z,100381.50
2017-11-27T10:54:06.100Z,100390.01
2017-11-27T10:55:12.566Z,100387.40
2017-11-27T10:56:18.282Z,100379.83
2017-11-27T10:57:24.777Z,100385.48
2017-11-27T10:58:30.153Z,100378.73
2017-11-27T10:59:35.862Z,100368.54
2017-11-27T11:00:46.907Z,100371.02
2017-11-27T11:01:52.615Z,100373.81
2017-11-27T11:02:59.106Z,100374.61
2017-11-27T11:04:04.826Z,100372.38
2017-11-27T11:05:11.294Z,100372.68
2017-11-27T11:06:17.764Z,100366.33
2017-11-27T11:07:23.479Z,100363.61
2017-11-27T11:08:29.974Z,100355.06
2017-11-27T11:09:35.674Z,100362.03
2017-11-27T11:10:42.134Z,100356.19
2017-11-27T11:11:48.602Z,100361.27
2017-11-27T11:12:55.083Z,100355.63
2017-11-27T11:14:00.804Z,100355.17
2017-11-27T11:15:06.656Z,100346.84
2017-11-27T11:16:11.735Z,100353.37
2017-11-27T11:17:17.435Z,100353.77
2017-11-27T11:18:23.150Z,100350.62
2017-11-27T11:19:29.464Z,100349.30
2017-11-27T11:20:34.506Z,100346.28
2017-11-27T11:21:40.207Z,100339.94
2017-11-27T11:22:45.923Z,100342.23
2017-11-27T11:23:51.624Z,100333.30
2017-11-27T11:24:58.124Z,100330.16
2017-11-27T11:26:03.819Z,100323.70
2017-11-27T11:27:09.523Z,100329.94
2017-11-27T11:28:14.655Z,100329.41
2017-11-27T11:29:20.161Z,100332.39
2017-11-27T11:30:25.959Z,100324.72
2017-11-27T11:31:31.681Z,100327.10
2017-11-27T11:32:37.385Z,100316.24
2017-11-27T11:33:43.087Z,100320.63
2017-11-27T11:34:49.557Z,100316.62
2017-11-27T11:35:55.312Z,100315.75
2017-11-27T11:37:01.011Z,100318.73
2017-11-27T11:38:06.725Z,100306.62
2017-11-27T11:39:12.106Z,100308.34
2017-11-27T11:40:20.764Z,100309.39
2017-11-27T11:41:24.567Z,100302.65
2017-11-27T11:42:30.119Z,100295.63
2017-11-27T11:43:35.848Z,100302.26
2017-11-27T11:44:41.550Z,100298.82
2017-11-27T11:45:48.046Z,100294.53
2017-11-27T11:46:53.774Z,100293.88
2017-11-27T11:47:59.586Z,100298.80
2017-11-27T11:49:06.051Z,100293.02
2017-11-27T11:50:12.523Z,100292.13
2017-11-27T11:51:18.222Z,100287.11
2017-11-27T11:52:23.949Z,100279.89
2017-11-27T11:53:29.647Z,100289.62
2017-11-27T11:54:35.363Z,100285.06
2017-11-27T11:55:41.252Z,100279.89
2017-11-27T11:56:46.294Z,100281.33
2017-11-27T11:57:51.172Z,100280.00
2017-11-27T11:58:56.870Z,100274.42
2017-11-27T12:00:02.235Z,100266.00
2017-11-27T12:01:08.922Z,100269.70
2017-11-27T12:02:14.649Z,100269.14
2017-11-27T12:03:20.375Z,100262.17
2017-11-27T12:04:26.846Z,100255.25
2017-11-27T12:05:32.552Z,100251.77
2017-11-27T12:06:39.014Z,100246.24
2017-11-27T12:07:44.711Z,100242.39
2017-11-27T12:08:50.526Z,100250.46
2017-11-27T12:09:56.261Z,100241.45
2017-11-27T12:11:02.757Z,100241.59
2017-11-27T12:12:08.454Z,100232.76
2017-11-27T12:13:14.922Z,100242.39
2017-11-27T12:14:20.454Z,100224.45
2017-11-27T12:15:26.992Z,100228.58
2017-11-27T12:16:32.711Z,100220.08
2017-11-27T12:17:38.405Z,100228.38
2017-11-27T12:18:44.110Z,100220.95
2017-11-27T12:19:50.631Z,100212.86
2017-11-27T12:20:56.340Z,100215.88
2017-11-27T12:22:02.037Z,100209.60
2017-11-27T12:23:07.823Z,100205.98
2017-11-27T12:24:13.523Z,100205.84
2017-11-27T12:25:20.016Z,100208.48
2017-11-27T12:26:25.323Z,100198.39
2017-11-27T12:27:30.674Z,100192.61
2017-11-27T12:28:36.964Z,100185.13
2017-11-27T12:29:42.672Z,100181.46
2017-11-27T12:30:49.240Z,100181.39
2017-11-27T12:31:54.775Z,100173.98
2017-11-27T12:33:00.471Z,100169.81
2017-11-27T12:34:05.609Z,100168.64